Bentonville, AR

1:47 PM CDT on September 18, 2014 (GMT -0500)
Blueberry Heights | Change Station
CLOSE
Current Station
Personal Weather Station
Location: Bentonville, AR
Elevation: 1306 ft
Nearby Weather Stations

Elev 1306 ft 36.38 °N, 94.18 °W | Updated 6 seconds ago

Partly Cloudy
Partly Cloudy
76.6 °F
Feels Like 78 °F
N
2.7
Wind Variable Wind from SSE
Gusts 2.7 mph

Today
High -- | Low -- °F
--% Chance of Precip.
Yesterday
High -- | Low -- °F
Precip. -- in
7:01 AM 7:19 PM
Waning Crescent, 25% visible
Pressure 29.98 in
Visibility 10.0 miles
Clouds Clear
Heat Index 78 °F
Dew Point 69 °F
Humidity 77%
Rainfall 1.00 in
Snow Depth Not available.
UV 9 out of 12
Pollen 9.20 out of 12
Air Quality Not available.
Flu Activity Not available.
METAR KVBT 181835Z AUTO 11007KT 10SM CLR 23/17 A2998 RMK AO1

More Conditions Fewer Conditions

Pressure 29.98 in
Visibility 10.0 miles
Clouds Clear
Heat Index 78 °F
Dew Point 69 °F
Humidity 77%
Rainfall 1.00 in
Snow Depth Not available.
UV 9 out of 12
Pollen 9.20 out of 12
Air Quality Not available.
Flu Activity Not available.
METAR KVBT 181835Z AUTO 11007KT 10SM CLR 23/17 A2998 RMK AO1

More Conditions Fewer Conditions

Nowcast | as of 1:32 PM CDT on September 18, 2014

At 1:28 PM... National Weather Service Doppler radar indicated isolated light rain showers occurring over northeast Oklahoma... along and north of Highway 412. Through 3:00 PM... light rain showers are expected to continue to spread southward into northeast Oklahoma... while weakening. Little additional rainfall is anticipated for most of eastern Oklahoma and northwest Arkansas. A few locations, generally along and north of Highway 412 in eastern Oklahoma however, will continue to receive light rain showers from decaying southward moving thunderstorms across southeast Kansas.

×

10-Day Weather Forecast

Almanac

Astronomy

Sep. 18, 2014 Rise Set
Actual Time 7:01 AM CDT 7:19 PM CDT
Civil Twilight 6:35 AM CDT 7:45 PM CDT
Nautical Twilight 6:05 AM CDT 8:15 PM CDT
Astronomical Twilight 5:34 AM CDT 8:46 PM CDT
Moon 2:00 AM CDT 4:05 PM CDT
Length of Visible Light 13h 09m
Length of Day
12h 18m
Tomorrow will be 2m 17s shorter.
Waning Crescent, 25% of the Moon is Illuminated
Today
Waning Crescent
Sep 24
New
Oct 1
First Quarter
Oct 8
Full
Oct 15
Last Quarter

Today's Extremes

State Highs State Lows

Community

WunderPhotos

Upload Photos

1,754,417 photos uploaded!

Nearby

Snow Depth

Station Depth Elevation
No new snow has been reported.

Earthquake Activity

City Distance Mag. Time & Date
No recent earthquake activity has been reported nearby.
Minimum magnitude displayed is 2.5.

Coastal Water Temperatures

Place Temperature
No Stations Reporting

Nearby Weather Stations